Time;durP1;ratioP1;P1;durP2;ratioP2;P2;SDS_P1;SDS_P2;PMS_P1;PMS_P2;Temp;Humidity;BMP_temperature;BMP_pressure;BME280_temperature;BME280_humidity;BME280_pressure;Samples;Min_cycle;Max_cycle;Signal;HPM_P1;HPM_P2
2024/03/14 00:02:03;;;;;;;18.00;14.57;;;10.30;99.90;;;;;;5012792;28;20570;-67
2024/03/14 00:04:32;;;;;;;18.47;14.90;;;10.40;99.90;;;;;;5006296;28;20491;-67
2024/03/14 00:07:01;;;;;;;19.23;14.07;;;10.40;99.90;;;;;;5007181;28;20467;-68
2024/03/14 00:09:29;;;;;;;20.33;14.30;;;10.30;99.90;;;;;;4998774;28;20472;-67
2024/03/14 00:11:57;;;;;;;19.70;14.00;;;10.30;99.90;;;;;;4995648;28;20495;-67
2024/03/14 00:14:26;;;;;;;19.57;14.50;;;10.30;99.90;;;;;;5007977;28;20475;-67
2024/03/14 00:16:54;;;;;;;21.67;14.57;;;10.30;99.90;;;;;;5006684;28;20471;-67
2024/03/14 00:19:22;;;;;;;23.50;15.37;;;10.30;99.90;;;;;;5012848;28;20550;-67
2024/03/14 00:21:50;;;;;;;24.03;14.87;;;10.30;99.90;;;;;;5007288;28;20589;-67
2024/03/14 00:24:18;;;;;;;21.43;15.07;;;10.30;99.90;;;;;;4993779;28;20498;-67
2024/03/14 00:26:47;;;;;;;22.43;15.47;;;10.40;99.90;;;;;;4995532;28;20468;-67
2024/03/14 00:29:16;;;;;;;23.37;15.60;;;10.40;99.90;;;;;;5013066;28;20475;-67
2024/03/14 00:31:44;;;;;;;19.93;15.10;;;10.40;99.90;;;;;;5011847;28;20490;-67
2024/03/14 00:34:14;;;;;;;21.57;15.47;;;10.40;99.90;;;;;;4998426;28;20583;-67
2024/03/14 00:36:42;;;;;;;24.33;16.37;;;10.40;99.90;;;;;;5008637;28;20514;-67
2024/03/14 00:39:11;;;;;;;21.87;15.70;;;10.40;99.90;;;;;;5007485;28;20481;-67
2024/03/14 00:41:40;;;;;;;22.77;17.00;;;10.40;99.90;;;;;;5008162;28;21179;-67
2024/03/14 00:44:08;;;;;;;25.17;16.30;;;10.40;99.90;;;;;;5013425;28;20581;-67
2024/03/14 00:46:36;;;;;;;21.50;16.57;;;10.40;99.90;;;;;;5007481;28;20475;-67
2024/03/14 00:49:05;;;;;;;25.37;15.93;;;10.40;99.90;;;;;;5018886;28;20504;-67
2024/03/14 00:51:34;;;;;;;25.00;17.03;;;10.40;99.90;;;;;;5012395;28;20503;-69
2024/03/14 00:54:04;;;;;;;26.00;17.87;;;10.40;99.90;;;;;;5009138;28;20567;-67
2024/03/14 00:56:35;;;;;;;30.10;18.60;;;10.40;99.90;;;;;;5015599;28;20471;-66
2024/03/14 00:59:04;;;;;;;23.43;17.17;;;10.40;99.90;;;;;;5006352;28;20574;-68
2024/03/14 01:01:32;;;;;;;25.80;17.47;;;10.40;99.90;;;;;;4993053;28;20519;-69
2024/03/14 01:04:00;;;;;;;25.17;17.70;;;10.40;99.90;;;;;;4988314;28;20486;-67
2024/03/14 01:06:28;;;;;;;28.77;18.93;;;10.40;99.90;;;;;;5009266;28;20596;-67
2024/03/14 01:08:56;;;;;;;23.43;16.27;;;10.50;99.90;;;;;;4985749;28;20508;-67
2024/03/14 01:11:24;;;;;;;26.40;18.60;;;10.50;99.90;;;;;;4996123;28;20499;-67
2024/03/14 01:13:53;;;;;;;25.93;18.20;;;10.50;99.90;;;;;;5013570;28;20490;-67
2024/03/14 01:16:21;;;;;;;27.20;18.90;;;10.50;99.90;;;;;;5015423;28;20585;-67
2024/03/14 01:18:50;;;;;;;27.90;19.10;;;10.50;99.90;;;;;;5013560;28;20540;-69
2024/03/14 01:21:20;;;;;;;28.17;19.90;;;10.50;99.90;;;;;;4992578;28;20598;-67
2024/03/14 01:23:49;;;;;;;28.43;19.03;;;10.50;99.90;;;;;;4995427;28;20485;-67
2024/03/14 01:26:20;;;;;;;28.00;19.20;;;10.50;99.90;;;;;;4997811;28;20545;-69
2024/03/14 01:28:50;;;;;;;31.10;19.50;;;10.50;99.90;;;;;;4995430;28;20479;-67
2024/03/14 01:31:18;;;;;;;27.43;18.00;;;10.60;99.90;;;;;;4994637;28;20492;-68
2024/03/14 01:33:46;;;;;;;26.30;19.00;;;10.50;99.90;;;;;;5011553;28;20488;-67
2024/03/14 01:36:15;;;;;;;27.73;18.47;;;10.50;99.90;;;;;;5011888;28;20479;-67
2024/03/14 01:38:43;;;;;;;28.60;18.80;;;10.60;99.90;;;;;;5008197;28;20483;-67
2024/03/14 01:41:17;;;;;;;29.67;19.60;;;10.60;99.90;;;;;;4995058;28;20491;-69
2024/03/14 01:43:58;;;;;;;30.10;19.30;;;10.60;99.90;;;;;;5009737;28;20587;-68
2024/03/14 01:46:28;;;;;;;26.60;18.63;;;10.60;99.90;;;;;;5014903;28;20487;-67
2024/03/14 01:48:56;;;;;;;25.53;17.33;;;10.60;99.90;;;;;;4998125;28;20480;-68
2024/03/14 01:51:24;;;;;;;27.07;18.23;;;10.60;99.90;;;;;;5010778;28;20490;-67
2024/03/14 01:53:53;;;;;;;27.90;18.40;;;10.60;99.90;;;;;;5005210;28;20496;-67
2024/03/14 01:56:21;;;;;;;24.90;17.07;;;10.60;99.90;;;;;;5007072;28;20472;-68
2024/03/14 01:58:50;;;;;;;25.30;18.07;;;10.60;99.90;;;;;;5003725;28;20464;-67
2024/03/14 02:01:18;;;;;;;27.00;18.23;;;10.60;99.90;;;;;;4994250;28;20522;-68
2024/03/14 02:03:47;;;;;;;25.43;17.20;;;10.60;99.90;;;;;;5013814;28;20905;-67
2024/03/14 02:06:16;;;;;;;25.87;17.53;;;10.60;99.90;;;;;;5015050;28;20495;-67
2024/03/14 02:08:44;;;;;;;25.40;17.47;;;10.70;99.90;;;;;;5011532;28;21080;-68
2024/03/14 02:11:12;;;;;;;25.23;17.97;;;10.70;99.90;;;;;;4994711;28;20487;-67
2024/03/14 02:13:41;;;;;;;27.33;17.73;;;10.70;99.90;;;;;;5010455;28;21048;-67
2024/03/14 02:16:09;;;;;;;25.87;17.77;;;10.70;99.90;;;;;;5014931;28;21509;-67
2024/03/14 02:18:37;;;;;;;25.33;17.53;;;10.70;99.90;;;;;;5000122;28;20503;-69
2024/03/14 02:21:05;;;;;;;25.80;17.83;;;10.60;99.90;;;;;;5013934;28;20487;-67
2024/03/14 02:23:34;;;;;;;24.93;17.80;;;10.60;99.90;;;;;;5009635;28;20501;-67
2024/03/14 02:26:03;;;;;;;23.17;16.57;;;10.60;99.90;;;;;;5010825;28;20527;-67
2024/03/14 02:28:31;;;;;;;24.97;17.57;;;10.70;99.90;;;;;;5011320;28;20485;-67
2024/03/14 02:30:59;;;;;;;26.17;17.50;;;10.70;99.90;;;;;;5008290;28;20582;-67
2024/03/14 02:33:27;;;;;;;25.80;17.40;;;10.70;99.90;;;;;;5005671;28;20925;-67
2024/03/14 02:35:56;;;;;;;23.17;16.23;;;10.70;99.90;;;;;;5012252;28;20463;-67
2024/03/14 02:38:24;;;;;;;24.10;17.20;;;10.70;99.90;;;;;;5013712;28;20478;-67
2024/03/14 02:40:53;;;;;;;23.27;17.13;;;10.70;99.90;;;;;;5011357;28;20502;-67
2024/03/14 02:43:22;;;;;;;24.90;17.63;;;10.70;99.90;;;;;;5010079;28;20527;-68
2024/03/14 02:45:50;;;;;;;22.40;16.53;;;10.70;99.90;;;;;;5010073;28;20751;-67
2024/03/14 02:48:19;;;;;;;24.00;17.63;;;10.70;99.90;;;;;;4998091;28;20566;-67
2024/03/14 02:50:49;;;;;;;21.23;15.47;;;10.70;99.90;;;;;;5009700;28;20560;-68
2024/03/14 02:53:17;;;;;;;22.60;17.07;;;10.70;99.90;;;;;;5013023;28;21023;-68
2024/03/14 02:55:45;;;;;;;22.03;16.67;;;10.70;99.90;;;;;;5014995;28;20463;-68
2024/03/14 02:58:13;;;;;;;21.40;15.73;;;10.70;99.90;;;;;;5013584;28;20889;-67
2024/03/14 03:00:42;;;;;;;23.40;17.70;;;10.70;99.90;;;;;;4996217;28;21035;-67
2024/03/14 03:03:10;;;;;;;23.87;16.97;;;10.70;99.90;;;;;;4999620;28;20550;-68
2024/03/14 03:05:38;;;;;;;22.90;16.00;;;10.70;99.90;;;;;;5014719;28;20499;-67
2024/03/14 03:08:07;;;;;;;22.27;16.17;;;10.70;99.90;;;;;;4993315;28;20475;-67
2024/03/14 03:10:35;;;;;;;20.13;16.20;;;10.70;99.90;;;;;;5010111;28;20494;-68
2024/03/14 03:13:05;;;;;;;20.90;16.43;;;10.70;99.90;;;;;;4993029;28;20522;-67
2024/03/14 03:15:33;;;;;;;20.17;15.43;;;10.70;99.90;;;;;;5012900;28;20484;-67
2024/03/14 03:18:02;;;;;;;20.73;14.97;;;10.70;99.90;;;;;;5014021;28;20514;-68
2024/03/14 03:20:30;;;;;;;21.83;14.93;;;10.70;99.90;;;;;;5014301;28;21134;-67
2024/03/14 03:23:09;;;;;;;19.10;14.50;;;10.70;99.90;;;;;;5017877;28;20550;-68
2024/03/14 03:25:36;;;;;;;20.20;14.77;;;10.70;99.90;;;;;;5015989;28;21001;-67
2024/03/14 03:28:08;;;;;;;21.37;16.03;;;10.70;99.90;;;;;;5009376;28;21066;-66
2024/03/14 03:30:37;;;;;;;20.30;15.47;;;10.70;99.90;;;;;;5002399;28;20499;-65
2024/03/14 03:33:05;;;;;;;20.20;16.43;;;10.70;99.90;;;;;;5015907;28;20486;-67
2024/03/14 03:35:33;;;;;;;24.23;16.00;;;10.70;99.90;;;;;;5014329;28;20463;-65
2024/03/14 03:38:00;;;;;;;21.30;14.87;;;10.70;99.90;;;;;;4998495;28;20548;-66
2024/03/14 03:40:35;;;;;;;20.57;14.53;;;10.70;99.90;;;;;;5011674;28;21094;-67
2024/03/14 03:43:03;;;;;;;20.37;15.33;;;10.70;99.90;;;;;;4997689;28;20490;-66
2024/03/14 03:45:31;;;;;;;21.87;16.47;;;10.70;99.90;;;;;;5015478;28;20504;-65
2024/03/14 03:48:00;;;;;;;18.83;15.37;;;10.70;99.90;;;;;;5019215;28;20583;-68
2024/03/14 03:50:28;;;;;;;20.33;15.13;;;10.70;99.90;;;;;;5014435;28;21037;-65
2024/03/14 03:52:56;;;;;;;19.67;15.03;;;10.70;99.90;;;;;;5013102;28;20510;-66
2024/03/14 03:55:25;;;;;;;20.43;15.37;;;10.70;99.90;;;;;;5010790;28;21033;-65
2024/03/14 03:57:53;;;;;;;21.77;15.90;;;10.70;99.90;;;;;;5015286;28;20559;-65
2024/03/14 04:00:41;;;;;;;18.97;15.70;;;10.70;99.90;;;;;;5013782;28;20488;-67
2024/03/14 04:03:11;;;;;;;19.43;14.80;;;10.70;99.90;;;;;;5010996;28;20556;-66
2024/03/14 04:05:39;;;;;;;19.80;14.87;;;10.70;99.90;;;;;;5001956;28;20467;-65
2024/03/14 04:08:08;;;;;;;22.83;16.33;;;10.70;99.90;;;;;;5009893;28;20496;-65
2024/03/14 04:10:35;;;;;;;19.47;15.50;;;10.70;99.90;;;;;;5009413;28;20516;-65
2024/03/14 04:13:04;;;;;;;19.20;14.67;;;10.70;99.90;;;;;;5016291;28;20572;-65
2024/03/14 04:15:33;;;;;;;16.40;13.97;;;10.70;99.90;;;;;;5010313;28;20564;-65
2024/03/14 04:18:05;;;;;;;18.03;14.20;;;10.70;99.90;;;;;;5014789;28;20474;-65
2024/03/14 04:20:37;;;;;;;17.90;14.50;;;10.70;99.90;;;;;;5013160;28;20545;-65
2024/03/14 04:23:06;;;;;;;16.50;14.37;;;10.70;99.90;;;;;;5014617;28;20471;-65
2024/03/14 04:25:35;;;;;;;17.17;14.10;;;10.70;99.90;;;;;;5014584;28;21434;-66
2024/03/14 04:28:03;;;;;;;17.63;14.23;;;10.70;99.90;;;;;;4998471;28;20561;-66
2024/03/14 04:30:31;;;;;;;16.03;13.50;;;10.70;99.90;;;;;;5015969;28;20626;-65
2024/03/14 04:32:59;;;;;;;18.93;15.93;;;10.70;99.90;;;;;;5017015;28;20470;-65
2024/03/14 04:35:28;;;;;;;17.60;14.67;;;10.70;99.90;;;;;;5011993;28;20471;-66
2024/03/14 04:37:56;;;;;;;16.10;14.10;;;10.70;99.90;;;;;;5018213;28;20928;-65
2024/03/14 04:40:25;;;;;;;17.20;14.13;;;10.70;99.90;;;;;;5013702;28;20586;-66
2024/03/14 04:42:54;;;;;;;17.40;13.33;;;10.70;99.90;;;;;;5009741;28;20471;-67
2024/03/14 04:45:22;;;;;;;15.80;14.00;;;10.70;99.90;;;;;;5013417;28;20464;-66
2024/03/14 04:47:51;;;;;;;14.07;12.57;;;10.70;99.90;;;;;;5018179;28;20500;-68
2024/03/14 04:50:19;;;;;;;16.93;14.00;;;10.70;99.90;;;;;;4995037;28;20877;-65
2024/03/14 04:52:48;;;;;;;16.13;12.90;;;10.70;99.90;;;;;;4999022;28;20849;-66
2024/03/14 04:55:17;;;;;;;16.60;13.10;;;10.70;99.90;;;;;;5016852;28;20970;-66
2024/03/14 04:57:45;;;;;;;18.73;14.03;;;10.70;99.90;;;;;;5017282;28;20464;-66
2024/03/14 05:00:20;;;;;;;19.40;14.03;;;10.70;99.90;;;;;;5011597;28;20570;-66
2024/03/14 05:02:50;;;;;;;16.17;13.53;;;10.70;99.90;;;;;;5011692;28;20472;-68
2024/03/14 05:05:20;;;;;;;17.73;13.73;;;10.70;99.90;;;;;;5015728;28;20463;-66
2024/03/14 05:07:50;;;;;;;16.53;13.90;;;10.70;99.90;;;;;;5018099;28;20503;-66
2024/03/14 05:10:19;;;;;;;16.67;13.47;;;10.70;99.90;;;;;;5012133;28;20505;-65
2024/03/14 05:12:49;;;;;;;14.70;12.77;;;10.70;99.90;;;;;;5020667;28;21075;-67
2024/03/14 05:15:17;;;;;;;15.93;13.10;;;10.70;99.90;;;;;;5013289;28;20997;-67
2024/03/14 05:17:47;;;;;;;15.13;12.93;;;10.70;99.90;;;;;;5011604;28;20480;-65
2024/03/14 05:20:16;;;;;;;15.57;13.30;;;10.70;99.90;;;;;;5014714;28;20488;-68
2024/03/14 05:22:45;;;;;;;16.07;12.60;;;10.70;99.90;;;;;;5015099;28;20524;-66
2024/03/14 05:25:12;;;;;;;15.83;12.87;;;10.70;99.90;;;;;;5009420;28;21131;-65
2024/03/14 05:27:43;;;;;;;17.90;14.47;;;10.70;99.90;;;;;;5008145;28;20844;-65
2024/03/14 05:30:13;;;;;;;16.70;13.47;;;10.70;99.90;;;;;;5014766;28;20495;-66
2024/03/14 05:32:45;;;;;;;16.37;13.40;;;10.70;99.90;;;;;;4986800;28;20537;-65
2024/03/14 05:35:13;;;;;;;17.37;13.80;;;10.70;99.90;;;;;;5011398;28;20509;-65
2024/03/14 05:37:41;;;;;;;18.17;14.20;;;10.70;99.90;;;;;;5010170;28;20460;-65
2024/03/14 05:40:10;;;;;;;16.87;13.97;;;10.70;99.90;;;;;;5006708;28;21079;-66
2024/03/14 05:42:39;;;;;;;15.67;13.87;;;10.70;99.90;;;;;;4999320;28;20459;-66
2024/03/14 05:45:08;;;;;;;15.03;13.10;;;10.70;99.90;;;;;;5011029;28;20471;-69
2024/03/14 05:47:38;;;;;;;16.57;13.67;;;10.70;99.90;;;;;;4999077;28;20519;-68
2024/03/14 05:50:09;;;;;;;17.30;14.70;;;10.70;99.90;;;;;;5004458;28;22404;-68
2024/03/14 05:52:39;;;;;;;16.50;13.93;;;10.70;99.90;;;;;;4991636;28;20475;-70
2024/03/14 05:55:09;;;;;;;16.00;14.30;;;10.60;99.90;;;;;;5008741;28;20493;-68
2024/03/14 05:57:38;;;;;;;19.43;13.70;;;10.60;99.90;;;;;;5013682;28;21017;-68
2024/03/14 06:00:09;;;;;;;17.80;14.70;;;10.60;99.90;;;;;;5011390;28;20579;-68
2024/03/14 06:02:38;;;;;;;17.13;14.10;;;10.60;99.90;;;;;;5007540;28;20460;-67
2024/03/14 06:05:07;;;;;;;18.00;14.17;;;10.60;99.90;;;;;;4995295;28;20511;-67
2024/03/14 06:07:35;;;;;;;16.30;13.70;;;10.60;99.90;;;;;;5009185;28;20547;-67
2024/03/14 06:10:04;;;;;;;17.80;14.43;;;10.60;99.90;;;;;;5007098;28;20556;-67
2024/03/14 06:12:32;;;;;;;19.93;14.90;;;10.60;99.90;;;;;;5004725;28;20479;-66
2024/03/14 06:15:01;;;;;;;18.73;15.90;;;10.60;99.90;;;;;;5001776;28;20498;-67
2024/03/14 06:17:29;;;;;;;17.47;15.00;;;10.50;99.90;;;;;;4987672;28;20471;-67
2024/03/14 06:19:58;;;;;;;18.47;14.83;;;10.50;99.90;;;;;;4993051;28;25654;-67
2024/03/14 06:22:26;;;;;;;17.30;14.60;;;10.50;99.90;;;;;;4987065;28;20549;-67
2024/03/14 06:24:54;;;;;;;19.67;14.37;;;10.50;99.90;;;;;;5027343;28;20611;-68
2024/03/14 06:27:22;;;;;;;19.70;15.80;;;10.50;99.90;;;;;;5031931;28;21083;-68
2024/03/14 06:29:51;;;;;;;19.93;15.70;;;10.50;99.90;;;;;;5028499;28;20577;-67
2024/03/14 06:32:21;;;;;;;19.87;16.40;;;10.50;99.90;;;;;;5029315;28;20474;-69
2024/03/14 06:34:49;;;;;;;19.87;15.43;;;10.50;99.90;;;;;;5013016;28;20486;-68
2024/03/14 06:37:17;;;;;;;18.57;15.97;;;10.50;99.90;;;;;;4993213;28;20566;-66
2024/03/14 06:39:46;;;;;;;22.43;16.37;;;10.50;99.90;;;;;;5007153;28;20482;-66
2024/03/14 06:42:15;;;;;;;20.83;17.30;;;10.50;99.90;;;;;;5006559;28;20497;-66
2024/03/14 06:44:43;;;;;;;19.97;16.10;;;10.50;99.90;;;;;;4990254;28;21879;-66
2024/03/14 06:47:12;;;;;;;22.10;17.00;;;10.50;99.90;;;;;;4988162;28;22023;-68
2024/03/14 06:49:42;;;;;;;21.73;16.43;;;10.60;99.90;;;;;;4989623;28;20476;-67
2024/03/14 06:52:12;;;;;;;21.20;15.77;;;10.60;99.90;;;;;;5001291;28;20476;-66
2024/03/14 06:54:41;;;;;;;23.43;17.40;;;10.60;99.90;;;;;;5010085;28;20511;-65
2024/03/14 06:57:10;;;;;;;19.47;16.43;;;10.60;99.90;;;;;;4996798;28;20475;-66
2024/03/14 06:59:38;;;;;;;19.90;16.60;;;10.70;99.90;;;;;;4997733;28;20464;-65
2024/03/14 07:02:07;;;;;;;20.70;14.97;;;10.70;99.90;;;;;;5007056;28;20507;-66
2024/03/14 07:04:35;;;;;;;17.77;15.27;;;10.70;99.90;;;;;;5008788;28;20487;-66
2024/03/14 07:07:04;;;;;;;16.47;14.40;;;10.70;99.90;;;;;;5007147;28;20507;-66
2024/03/14 07:09:32;;;;;;;16.10;14.40;;;10.80;99.90;;;;;;5011363;28;20483;-66
2024/03/14 07:12:00;;;;;;;18.60;15.13;;;10.80;99.90;;;;;;5010737;28;20463;-66
2024/03/14 07:14:29;;;;;;;17.63;14.27;;;10.80;99.90;;;;;;5005074;28;20498;-66
2024/03/14 07:16:57;;;;;;;17.40;14.60;;;10.80;99.90;;;;;;5011786;28;20468;-66
2024/03/14 07:19:25;;;;;;;17.50;14.53;;;10.80;99.90;;;;;;5015318;28;20499;-67
2024/03/14 07:21:54;;;;;;;17.27;15.33;;;10.80;99.90;;;;;;4997570;28;20585;-66
2024/03/14 07:24:23;;;;;;;15.47;13.53;;;10.80;99.90;;;;;;4997027;28;20492;-66
2024/03/14 07:26:51;;;;;;;16.80;14.07;;;10.80;99.90;;;;;;5009111;28;20480;-67
2024/03/14 07:29:19;;;;;;;17.00;14.40;;;10.80;99.90;;;;;;5011936;28;20996;-67
2024/03/14 07:31:51;;;;;;;17.87;14.90;;;10.80;99.90;;;;;;4994322;28;20499;-66
2024/03/14 07:34:21;;;;;;;15.40;13.80;;;10.80;99.90;;;;;;5010708;28;20479;-66
2024/03/14 07:36:49;;;;;;;19.20;14.40;;;10.80;99.90;;;;;;5009038;28;20468;-66
2024/03/14 07:39:24;;;;;;;16.40;14.17;;;10.80;99.90;;;;;;4996019;28;20468;-66
2024/03/14 07:41:53;;;;;;;16.37;14.63;;;10.80;99.90;;;;;;5012206;28;20605;-65
2024/03/14 07:44:21;;;;;;;17.23;14.47;;;10.80;99.90;;;;;;5015220;28;20488;-65
2024/03/14 07:47:00;;;;;;;18.97;14.43;;;10.80;99.90;;;;;;5013936;28;20567;-66
2024/03/14 07:49:35;;;;;;;19.10;14.37;;;10.90;99.90;;;;;;5011345;28;20502;-66
2024/03/14 07:52:04;;;;;;;14.83;13.23;;;10.90;99.90;;;;;;5015628;28;20472;-66
2024/03/14 07:54:32;;;;;;;15.40;13.40;;;10.90;99.90;;;;;;5013867;28;20483;-66
2024/03/14 07:57:00;;;;;;;15.20;13.70;;;11.00;99.90;;;;;;5015260;28;20465;-66
2024/03/14 07:59:28;;;;;;;16.47;14.70;;;11.10;99.90;;;;;;5013886;28;21022;-66
2024/03/14 08:01:58;;;;;;;17.67;14.97;;;11.10;99.90;;;;;;5008590;28;20488;-66
2024/03/14 08:04:26;;;;;;;17.30;15.33;;;11.20;99.90;;;;;;4996015;28;21016;-66
2024/03/14 08:06:56;;;;;;;17.20;15.40;;;11.20;99.90;;;;;;5006047;28;20476;-66
2024/03/14 08:09:26;;;;;;;16.50;14.77;;;11.20;99.90;;;;;;5017478;28;20498;-66
2024/03/14 08:11:57;;;;;;;15.70;13.53;;;11.30;99.90;;;;;;5016056;28;20519;-67
2024/03/14 08:14:26;;;;;;;17.07;15.30;;;11.30;99.90;;;;;;5015406;28;20495;-66
2024/03/14 08:16:54;;;;;;;15.07;13.47;;;11.40;99.90;;;;;;5014548;28;20627;-67
2024/03/14 08:19:23;;;;;;;14.47;13.03;;;11.50;99.90;;;;;;5012956;28;20503;-66
2024/03/14 08:21:51;;;;;;;15.50;13.90;;;11.50;99.90;;;;;;5016498;28;21026;-67
2024/03/14 08:24:19;;;;;;;15.03;13.43;;;11.50;99.90;;;;;;5012129;28;20492;-66
2024/03/14 08:26:50;;;;;;;16.90;14.00;;;11.60;99.90;;;;;;5014385;28;21240;-67
2024/03/14 08:29:20;;;;;;;15.27;13.80;;;11.60;99.90;;;;;;4999090;28;20522;-67
2024/03/14 08:31:49;;;;;;;14.37;12.97;;;11.70;99.90;;;;;;4998104;28;20491;-66
2024/03/14 08:34:17;;;;;;;13.53;11.97;;;11.80;99.90;;;;;;5014020;28;20507;-66
2024/03/14 08:36:45;;;;;;;15.23;12.50;;;11.80;99.90;;;;;;5012141;28;20503;-66
2024/03/14 08:39:17;;;;;;;14.07;12.67;;;11.90;99.90;;;;;;5014367;28;20471;-66
2024/03/14 08:41:47;;;;;;;14.10;12.60;;;12.00;99.90;;;;;;5012484;28;20517;-66
2024/03/14 08:44:16;;;;;;;16.13;12.23;;;12.00;99.90;;;;;;5017217;28;20566;-66
2024/03/14 08:46:44;;;;;;;14.43;13.00;;;12.00;99.90;;;;;;5013206;28;20555;-65
2024/03/14 08:49:14;;;;;;;15.57;13.20;;;12.00;99.90;;;;;;5013548;28;20580;-67
2024/03/14 08:51:42;;;;;;;13.77;12.37;;;12.10;99.90;;;;;;5012475;28;20574;-66
2024/03/14 08:54:28;;;;;;;13.93;12.03;;;12.10;99.90;;;;;;5009013;28;21093;-66
2024/03/14 08:56:58;;;;;;;14.47;13.00;;;12.20;99.90;;;;;;4999395;28;20527;-66
2024/03/14 08:59:28;;;;;;;14.20;12.70;;;12.20;99.90;;;;;;5016524;28;20473;-66
2024/03/14 09:01:57;;;;;;;13.10;11.80;;;12.30;99.90;;;;;;5015797;28;20587;-68
2024/03/14 09:04:25;;;;;;;13.23;11.30;;;12.40;99.90;;;;;;5015095;28;20519;-66
2024/03/14 09:06:53;;;;;;;13.70;12.40;;;12.50;99.90;;;;;;5015875;28;21610;-66
2024/03/14 09:09:27;;;;;;;12.90;11.70;;;12.60;99.90;;;;;;5013593;28;20489;-66
2024/03/14 09:12:07;;;;;;;12.40;11.13;;;12.70;99.90;;;;;;5014373;28;20569;-66
2024/03/14 09:14:36;;;;;;;14.43;11.37;;;12.70;99.90;;;;;;5013127;28;20488;-67
2024/03/14 09:17:05;;;;;;;12.50;11.30;;;12.70;99.90;;;;;;5018526;28;20465;-66
2024/03/14 09:19:33;;;;;;;13.70;11.90;;;12.80;99.90;;;;;;5014995;28;20521;-66
2024/03/14 09:22:02;;;;;;;12.73;11.37;;;12.80;99.90;;;;;;5018153;28;20550;-66
2024/03/14 09:24:32;;;;;;;13.67;12.27;;;12.80;99.90;;;;;;4992265;28;20989;-65
2024/03/14 09:27:02;;;;;;;11.77;10.67;;;12.80;99.90;;;;;;4996655;28;20993;-65
2024/03/14 09:29:32;;;;;;;12.73;11.53;;;12.90;99.90;;;;;;5012883;28;20491;-65
2024/03/14 09:32:03;;;;;;;12.07;10.83;;;13.00;99.90;;;;;;5013900;28;20470;-66
2024/03/14 09:34:32;;;;;;;12.80;11.40;;;13.10;99.90;;;;;;5016105;28;21034;-66
2024/03/14 09:37:00;;;;;;;10.60;9.60;;;13.20;99.90;;;;;;5015512;28;20468;-66
2024/03/14 09:39:35;;;;;;;11.27;9.70;;;13.30;99.90;;;;;;5011331;28;20469;-65
2024/03/14 09:42:05;;;;;;;11.00;10.03;;;13.40;99.90;;;;;;5013642;28;20550;-65
2024/03/14 09:44:35;;;;;;;11.30;9.80;;;13.50;99.90;;;;;;5012822;28;20487;-66
2024/03/14 09:47:05;;;;;;;10.80;9.70;;;13.60;99.90;;;;;;5015010;28;20472;-66
2024/03/14 09:49:35;;;;;;;11.47;10.37;;;13.70;99.90;;;;;;4997918;28;20500;-65
2024/03/14 09:52:03;;;;;;;10.40;9.40;;;13.70;99.90;;;;;;5007772;28;20526;-65
2024/03/14 09:54:32;;;;;;;10.93;9.83;;;13.70;99.90;;;;;;5009578;28;21412;-66
2024/03/14 09:57:00;;;;;;;11.17;9.93;;;13.70;99.90;;;;;;5010428;28;20856;-67
2024/03/14 09:59:28;;;;;;;10.67;9.67;;;13.70;99.90;;;;;;5016857;28;20459;-66
2024/03/14 10:01:57;;;;;;;10.43;9.53;;;13.80;99.90;;;;;;5008485;28;20575;-67
2024/03/14 10:04:26;;;;;;;10.93;9.37;;;13.90;99.90;;;;;;5012484;28;20479;-67
2024/03/14 10:06:55;;;;;;;9.93;8.73;;;14.00;99.90;;;;;;5015449;28;20471;-66
2024/03/14 10:09:23;;;;;;;10.50;9.40;;;14.00;99.90;;;;;;5009088;28;21400;-65
2024/03/14 10:12:02;;;;;;;10.27;8.40;;;14.10;99.90;;;;;;4999350;28;20499;-65
2024/03/14 10:14:32;;;;;;;9.43;8.50;;;14.20;99.90;;;;;;5014180;28;20486;-65
2024/03/14 10:17:01;;;;;;;11.47;8.60;;;14.20;99.90;;;;;;5016913;28;20948;-65
2024/03/14 10:19:30;;;;;;;8.50;7.70;;;14.40;99.90;;;;;;5014624;28;21048;-65
2024/03/14 10:22:01;;;;;;;12.23;8.53;;;14.40;99.90;;;;;;4995423;28;20583;-65
2024/03/14 10:24:29;;;;;;;9.43;8.53;;;14.60;99.90;;;;;;5015327;28;20494;-64
2024/03/14 10:26:57;;;;;;;8.50;7.20;;;14.70;99.90;;;;;;5014298;28;20475;-66
2024/03/14 10:29:29;;;;;;;9.07;7.23;;;14.90;99.90;;;;;;5016743;28;20523;-64
2024/03/14 10:31:57;;;;;;;8.00;7.23;;;14.90;99.90;;;;;;5014550;28;20491;-64
2024/03/14 10:34:25;;;;;;;7.97;7.20;;;15.00;99.90;;;;;;5013431;28;20504;-65
2024/03/14 10:36:54;;;;;;;8.13;7.30;;;15.00;99.90;;;;;;5008728;28;20563;-65
2024/03/14 10:39:23;;;;;;;7.30;6.60;;;15.00;99.90;;;;;;5008997;28;20476;-66
2024/03/14 10:41:51;;;;;;;8.30;6.93;;;15.10;99.90;;;;;;4997217;28;20495;-67
2024/03/14 10:44:19;;;;;;;7.80;6.60;;;15.10;99.90;;;;;;5011487;28;20625;-67
2024/03/14 10:46:50;;;;;;;7.77;6.97;;;15.30;99.90;;;;;;5012102;28;20988;-66
2024/03/14 10:49:19;;;;;;;7.23;6.53;;;15.50;99.90;;;;;;5014804;28;20483;-66
2024/03/14 10:51:49;;;;;;;6.50;6.00;;;15.60;99.90;;;;;;5011213;28;20949;-67
2024/03/14 10:54:18;;;;;;;7.00;6.30;;;15.70;99.90;;;;;;5006319;28;20475;-66
2024/03/14 10:56:46;;;;;;;7.00;6.03;;;15.70;99.90;;;;;;5012375;28;20475;-66
2024/03/14 10:59:16;;;;;;;7.13;6.50;;;15.70;99.90;;;;;;5017216;28;20463;-66
2024/03/14 11:01:50;;;;;;;6.70;6.07;;;15.70;99.90;;;;;;5011955;28;20516;-66
2024/03/14 11:04:20;;;;;;;8.17;6.57;;;15.70;99.90;;;;;;5009372;28;20488;-67
2024/03/14 11:06:49;;;;;;;6.13;5.43;;;15.70;99.90;;;;;;5008836;28;20894;-66
2024/03/14 11:09:17;;;;;;;6.50;5.80;;;15.70;99.90;;;;;;5011008;28;20471;-67
2024/03/14 11:11:48;;;;;;;7.60;6.30;;;15.80;99.90;;;;;;5012353;28;20503;-69
2024/03/14 11:14:16;;;;;;;6.03;5.53;;;15.80;99.90;;;;;;4993215;28;20488;-66
2024/03/14 11:16:45;;;;;;;6.07;5.47;;;15.90;99.90;;;;;;5017396;28;20494;-69
2024/03/14 11:19:15;;;;;;;6.90;6.20;;;15.90;99.90;;;;;;5017375;28;20483;-67
2024/03/14 11:21:44;;;;;;;7.20;6.50;;;15.90;99.90;;;;;;5015034;28;20556;-68
2024/03/14 11:24:12;;;;;;;7.30;5.90;;;15.90;99.90;;;;;;5015702;28;20531;-66
2024/03/14 11:26:42;;;;;;;5.80;5.30;;;15.90;99.90;;;;;;5016325;28;20551;-69
2024/03/14 11:29:14;;;;;;;5.80;5.30;;;15.90;99.90;;;;;;5015542;28;20479;-65
2024/03/14 11:31:44;;;;;;;5.87;5.37;;;16.00;99.90;;;;;;5015636;28;20573;-66
2024/03/14 11:34:17;;;;;;;7.13;5.60;;;16.00;99.90;;;;;;5014044;28;20491;-66
2024/03/14 11:36:46;;;;;;;7.67;5.97;;;16.10;99.90;;;;;;5013814;28;21055;-66
2024/03/14 11:39:16;;;;;;;6.23;5.73;;;16.10;99.90;;;;;;5011681;28;20475;-65
2024/03/14 11:41:45;;;;;;;6.30;5.67;;;16.10;99.90;;;;;;5001860;28;20519;-66
2024/03/14 11:44:15;;;;;;;5.87;5.47;;;16.10;99.90;;;;;;5008076;28;20479;-67
2024/03/14 11:46:44;;;;;;;6.40;5.80;;;16.10;99.90;;;;;;5015760;28;20478;-66
2024/03/14 11:49:16;;;;;;;8.17;6.17;;;16.10;99.90;;;;;;5014838;28;21520;-66
2024/03/14 11:51:47;;;;;;;5.73;5.23;;;16.10;99.90;;;;;;5018577;28;20487;-66
2024/03/14 11:54:18;;;;;;;5.17;4.77;;;16.20;99.90;;;;;;5014938;28;20494;-66
2024/03/14 11:56:47;;;;;;;5.80;5.20;;;16.40;99.90;;;;;;5015330;28;20517;-66
2024/03/14 11:59:15;;;;;;;5.53;4.83;;;16.60;99.90;;;;;;5015866;28;20571;-66
2024/03/14 12:01:43;;;;;;;6.13;5.63;;;16.70;99.90;;;;;;5012212;28;21795;-67
2024/03/14 12:04:18;;;;;;;5.27;4.77;;;16.80;99.90;;;;;;5014956;28;20490;-66
2024/03/14 12:06:47;;;;;;;5.90;5.40;;;17.00;99.90;;;;;;5015261;28;20654;-65
2024/03/14 12:09:21;;;;;;;5.60;4.90;;;17.20;99.90;;;;;;5014780;28;21018;-67
2024/03/14 12:11:49;;;;;;;5.40;5.00;;;17.40;99.90;;;;;;5014597;28;20498;-67
2024/03/14 12:14:18;;;;;;;6.40;5.90;;;17.60;99.90;;;;;;5014532;28;20591;-67
2024/03/14 12:16:47;;;;;;;6.20;5.70;;;17.80;99.90;;;;;;5015208;28;20472;-66
2024/03/14 12:19:16;;;;;;;5.73;5.23;;;18.00;99.90;;;;;;5016493;28;20976;-66
2024/03/14 12:21:45;;;;;;;6.03;5.43;;;18.10;99.90;;;;;;5014163;28;20484;-67
2024/03/14 12:24:14;;;;;;;6.57;5.40;;;18.10;99.90;;;;;;5012834;28;20594;-67
2024/03/14 12:26:43;;;;;;;6.20;5.70;;;18.20;99.90;;;;;;5011510;28;20544;-66
2024/03/14 12:29:11;;;;;;;6.93;6.33;;;18.20;99.90;;;;;;5016547;28;21019;-66
2024/03/14 12:31:40;;;;;;;6.03;5.53;;;18.20;99.90;;;;;;5018563;28;20491;-66
2024/03/14 12:34:08;;;;;;;6.23;5.73;;;18.20;99.90;;;;;;5015581;28;20483;-67
2024/03/14 12:36:37;;;;;;;6.63;6.03;;;18.30;99.90;;;;;;5011784;28;20515;-67
2024/03/14 12:39:05;;;;;;;5.87;5.27;;;18.60;99.90;;;;;;5002470;28;20468;-67
2024/03/14 12:41:36;;;;;;;5.47;4.97;;;18.90;99.90;;;;;;5012479;28;20991;-67